createdAt,value
2022-10-14T04:20:38.702Z,31.52
2022-10-14T04:23:42.747Z,31.65
2022-10-14T04:26:45.620Z,30.08
2022-10-14T04:29:48.945Z,29.95
2022-10-14T04:32:52.008Z,29.67
2022-10-14T04:36:01.789Z,26.50
2022-10-14T04:39:05.928Z,26.08
2022-10-14T04:42:10.082Z,26.12
2022-10-14T04:45:12.888Z,25.80
2022-10-14T04:48:20.329Z,24.67
2022-10-14T04:51:22.824Z,24.55
2022-10-14T04:54:26.869Z,25.48
2022-10-14T04:57:33.075Z,23.55
2022-10-14T05:00:36.855Z,24.10
2022-10-14T05:03:39.590Z,23.25
2022-10-14T05:06:42.386Z,23.02
2022-10-14T05:09:49.626Z,22.75
2022-10-14T05:12:54.599Z,22.42
2022-10-14T05:15:57.414Z,22.33
2022-10-14T05:19:01.025Z,22.05
2022-10-14T05:22:04.001Z,22.65
2022-10-14T05:25:07.376Z,23.17
2022-10-14T05:28:09.987Z,21.52
2022-10-14T05:31:14.097Z,22.10
2022-10-14T05:34:18.316Z,23.45
2022-10-14T07:52:30.782Z,17.35
2022-10-14T07:55:34.626Z,16.85
2022-10-14T07:58:44.530Z,17.30
2022-10-14T08:32:22.073Z,17.48
2022-10-14T08:35:25.047Z,18.15
2022-10-14T08:38:29.069Z,17.67
2022-10-14T08:41:37.896Z,18.40
2022-10-14T08:44:57.977Z,17.08
2022-10-14T08:48:08.482Z,16.50
2022-10-14T08:51:14.323Z,15.88
2022-10-14T08:54:27.962Z,16.05
2022-10-14T08:57:49.287Z,16.12
2022-10-14T09:00:54.434Z,16.35
2022-10-14T09:03:59.513Z,14.98
2022-10-14T09:07:02.862Z,17.12
2022-10-14T09:10:14.694Z,16.60
2022-10-14T09:13:18.780Z,16.77
2022-10-14T09:16:33.150Z,16.50
2022-10-14T09:27:23.158Z,18.65
2022-10-14T09:30:30.462Z,18.98
2022-10-14T09:33:38.231Z,19.37
2022-10-14T09:36:44.791Z,19.00
2022-10-14T09:50:59.286Z,17.60
2022-10-14T09:54:04.687Z,17.52
2022-10-14T09:57:08.885Z,16.20
2022-10-14T10:00:28.507Z,18.25
2022-10-14T10:03:35.631Z,18.35
2022-10-14T10:06:53.099Z,18.23
2022-10-14T10:10:20.191Z,16.65
2022-10-14T10:13:31.715Z,15.95
2022-10-14T10:16:38.700Z,16.70
2022-10-14T10:19:51.478Z,16.83
2022-10-14T10:22:56.470Z,15.75
2022-10-14T10:26:18.652Z,16.10
2022-10-14T10:48:57.749Z,15.93
2022-10-14T10:52:16.200Z,16.58
2022-10-14T10:55:54.820Z,15.80
2022-10-14T10:59:03.641Z,14.10
2022-10-14T11:02:49.860Z,15.30
2022-10-14T13:09:18.783Z,16.37
2022-10-14T13:12:23.935Z,16.55
2022-10-14T13:15:35.945Z,16.35
2022-10-14T13:33:15.462Z,17.92
2022-10-14T13:36:29.699Z,17.33
2022-10-14T13:51:24.007Z,18.90
2022-10-14T13:54:32.830Z,19.20
2022-10-14T13:58:07.554Z,18.92
2022-10-14T14:13:03.936Z,20.52
